METAR Data
IDs: Format: Raw Decoded Include TAF

Data at: 0233 UTC 25 Feb 2021

KBVO 250153Z AUTO 01010KT 10SM CLR 07/M01 A3025 RMK AO2 SLP241 T00671011